Time;durP1;ratioP1;P1;durP2;ratioP2;P2;SDS_P1;SDS_P2;PMS_P1;PMS_P2;Temp;Humidity;BMP_temperature;BMP_pressure;BME280_temperature;BME280_humidity;BME280_pressure;Samples;Min_cycle;Max_cycle;Signal;HPM_P1;HPM_P2
2022/12/31 00:02:24;;;;;;;7.17;2.00;;;16.20;97.20;;;;;;6283362;22;20170;-96
2022/12/31 00:05:03;;;;;;;3.07;0.80;;;16.20;97.10;;;;;;6279602;22;20563;-96
2022/12/31 00:07:51;;;;;;;6.67;1.80;;;16.20;97.00;;;;;;6279612;22;20173;-96
2022/12/31 00:10:26;;;;;;;7.40;2.07;;;16.20;97.00;;;;;;6279231;22;20203;-96
2022/12/31 00:13:46;;;;;;;8.57;2.07;;;16.10;96.90;;;;;;6288927;22;20153;-96
2022/12/31 00:20:34;;;;;;;10.87;2.67;;;16.10;96.80;;;;;;5978365;23;20227;-94
2022/12/31 00:27:04;;;;;;;6.33;2.33;;;16.10;96.50;;;;;;6043449;23;20179;-96
2022/12/31 00:29:37;;;;;;;3.77;1.03;;;16.00;96.50;;;;;;6056376;23;20173;-96
2022/12/31 00:45:50;;;;;;;6.20;1.97;;;15.80;96.40;;;;;;6186425;23;20172;-96
2022/12/31 00:51:48;;;;;;;8.27;2.50;;;15.70;96.30;;;;;;6168498;22;20479;-96
2022/12/31 01:08:25;;;;;;;9.87;2.97;;;15.60;96.10;;;;;;6122206;23;20275;-96
2022/12/31 01:18:38;;;;;;;8.47;2.10;;;15.50;96.20;;;;;;6092494;23;20171;-96
2022/12/31 01:21:38;;;;;;;12.47;3.40;;;15.50;96.00;;;;;;6182077;23;20172;-96
2022/12/31 01:24:22;;;;;;;4.47;1.27;;;15.40;96.10;;;;;;6186811;23;20168;-96
2022/12/31 01:27:12;;;;;;;7.50;1.47;;;15.40;96.10;;;;;;6188318;23;20179;-96
2022/12/31 01:30:04;;;;;;;7.67;2.67;;;15.40;96.10;;;;;;6187293;23;20628;-96
2022/12/31 01:32:52;;;;;;;9.93;3.17;;;15.30;96.10;;;;;;6186468;23;20180;-96
2022/12/31 01:35:39;;;;;;;8.00;2.10;;;15.30;96.10;;;;;;6186528;23;20231;-96
2022/12/31 01:38:10;;;;;;;7.73;2.43;;;15.30;96.20;;;;;;6240457;22;20178;-96
2022/12/31 01:40:44;;;;;;;9.77;2.90;;;15.30;96.30;;;;;;6288304;22;20198;-96
2022/12/31 01:43:45;;;;;;;8.23;2.37;;;15.30;96.40;;;;;;6279397;22;20219;-96
2022/12/31 01:46:44;;;;;;;7.60;1.87;;;15.20;96.30;;;;;;6278071;22;20252;-96
2022/12/31 01:49:51;;;;;;;5.83;1.07;;;15.20;96.40;;;;;;6277457;22;20176;-95
2022/12/31 01:52:44;;;;;;;9.17;2.50;;;15.20;96.40;;;;;;6276949;22;20264;-96
2022/12/31 01:55:19;;;;;;;10.83;2.53;;;15.20;96.40;;;;;;6277655;22;20853;-96
2022/12/31 01:58:01;;;;;;;8.90;2.47;;;15.20;96.50;;;;;;6276212;22;20178;-96
2022/12/31 02:00:37;;;;;;;5.10;1.60;;;15.20;96.40;;;;;;6276216;22;20199;-96
2022/12/31 02:03:14;;;;;;;7.63;2.70;;;15.10;96.40;;;;;;6277972;22;20642;-96
2022/12/31 02:06:09;;;;;;;8.03;2.23;;;15.10;96.50;;;;;;6277420;22;20162;-96
2022/12/31 02:08:44;;;;;;;7.30;1.83;;;15.10;96.50;;;;;;6294484;22;20181;-96
2022/12/31 02:11:36;;;;;;;4.37;1.47;;;15.10;96.60;;;;;;6293185;22;20681;-96
2022/12/31 02:14:09;;;;;;;6.50;1.90;;;15.10;96.60;;;;;;6278067;22;20170;-95
2022/12/31 02:16:59;;;;;;;6.77;2.23;;;15.00;96.90;;;;;;6278112;22;20163;-96
2022/12/31 02:20:23;;;;;;;3.97;1.33;;;15.00;96.60;;;;;;6277671;22;20204;-96
2022/12/31 02:23:39;;;;;;;9.03;2.27;;;15.00;96.60;;;;;;6200872;22;20175;-96
2022/12/31 02:26:40;;;;;;;9.77;2.60;;;15.00;96.70;;;;;;6176581;23;20176;-96
2022/12/31 02:29:40;;;;;;;8.37;2.60;;;15.00;96.80;;;;;;6181904;23;20207;-96
2022/12/31 02:32:20;;;;;;;9.63;2.93;;;15.00;96.90;;;;;;6172058;23;20625;-96
2022/12/31 02:34:54;;;;;;;5.80;1.73;;;15.00;96.90;;;;;;6184130;23;20184;-96
2022/12/31 02:37:28;;;;;;;6.63;1.87;;;14.90;96.90;;;;;;6266961;22;20980;-95
2022/12/31 02:40:03;;;;;;;6.63;1.87;;;15.00;97.00;;;;;;6277640;22;20220;-96
2022/12/31 02:42:33;;;;;;;3.10;0.90;;;14.90;97.00;;;;;;6278163;22;20634;-95
2022/12/31 02:45:11;;;;;;;11.73;3.57;;;14.90;97.00;;;;;;6274798;22;20202;-96
2022/12/31 02:48:01;;;;;;;11.83;2.43;;;14.90;97.10;;;;;;6275206;22;20248;-96
2022/12/31 02:51:02;;;;;;;7.80;2.33;;;14.90;97.10;;;;;;6276303;22;20220;-96
2022/12/31 02:53:51;;;;;;;11.53;3.30;;;14.90;97.20;;;;;;6230519;22;20178;-96
2022/12/31 02:56:26;;;;;;;8.73;2.87;;;14.90;97.20;;;;;;6275266;22;20185;-96
2022/12/31 03:02:26;;;;;;;;;;;;;;;;;;;;;
2022/12/31 03:04:57;;;;;;;11.07;3.53;;;15.00;97.20;;;;;;6289414;22;20201;-95
2022/12/31 03:07:27;;;;;;;10.10;3.33;;;15.00;97.20;;;;;;6284237;22;20182;-96
2022/12/31 03:10:02;;;;;;;11.30;3.77;;;15.00;97.20;;;;;;6273668;22;20604;-96
2022/12/31 03:12:45;;;;;;;5.10;1.90;;;15.00;97.30;;;;;;6247056;22;20225;-96
2022/12/31 03:15:21;;;;;;;5.13;1.83;;;15.00;97.30;;;;;;6276911;22;20175;-96
2022/12/31 03:17:56;;;;;;;8.33;2.40;;;15.00;97.30;;;;;;6276997;22;20240;-96
2022/12/31 03:23:23;;;;;;;9.37;3.03;;;15.10;97.40;;;;;;6275259;22;20618;-96
2022/12/31 03:25:57;;;;;;;6.60;2.57;;;15.10;97.40;;;;;;6277632;22;20184;-96
2022/12/31 03:28:31;;;;;;;4.10;1.73;;;15.10;97.30;;;;;;6278588;22;20173;-96
2022/12/31 03:31:04;;;;;;;6.50;2.13;;;15.10;97.30;;;;;;6278349;22;20169;-96
2022/12/31 03:33:38;;;;;;;4.00;1.50;;;15.10;97.30;;;;;;6279129;22;20163;-96
2022/12/31 03:36:24;;;;;;;4.43;1.70;;;15.10;97.30;;;;;;6287042;22;20155;-95
2022/12/31 03:38:54;;;;;;;3.13;1.37;;;15.10;97.30;;;;;;6301928;22;20159;-96
2022/12/31 03:41:35;;;;;;;4.63;1.87;;;15.20;97.30;;;;;;6301455;22;20175;-96
2022/12/31 03:44:31;;;;;;;3.43;1.73;;;15.20;97.40;;;;;;6302194;22;20201;-96
2022/12/31 03:47:05;;;;;;;3.03;1.63;;;15.20;97.40;;;;;;6302439;22;20155;-96
2022/12/31 03:49:35;;;;;;;3.67;2.17;;;15.20;97.40;;;;;;6295231;22;20184;-96
2022/12/31 03:52:10;;;;;;;5.40;2.67;;;15.20;97.40;;;;;;6283739;22;20250;-95
2022/12/31 03:54:39;;;;;;;5.33;2.60;;;15.20;97.40;;;;;;6279110;22;20166;-96
2022/12/31 03:57:15;;;;;;;8.53;3.63;;;15.20;97.40;;;;;;6252341;22;20207;-96
2022/12/31 03:59:44;;;;;;;3.37;2.07;;;15.20;97.50;;;;;;6284981;22;20191;-96
2022/12/31 04:02:23;;;;;;;8.27;4.03;;;15.20;97.40;;;;;;6299761;22;20171;-96
2022/12/31 04:04:57;;;;;;;7.70;3.40;;;15.20;97.60;;;;;;6294544;22;20174;-96
2022/12/31 04:07:32;;;;;;;6.60;2.77;;;15.20;97.60;;;;;;6293408;22;20170;-95
2022/12/31 04:10:05;;;;;;;6.57;3.10;;;15.30;97.80;;;;;;6297890;22;20185;-96
2022/12/31 04:12:34;;;;;;;4.93;2.40;;;15.30;97.80;;;;;;6285655;22;20620;-96
2022/12/31 04:15:07;;;;;;;10.73;4.20;;;15.30;97.80;;;;;;6289525;22;20193;-96
2022/12/31 04:17:40;;;;;;;8.70;3.43;;;15.30;97.90;;;;;;6284096;22;20191;-96
2022/12/31 04:20:33;;;;;;;4.40;2.00;;;15.30;98.40;;;;;;6258898;22;20204;-96
2022/12/31 04:23:12;;;;;;;6.23;2.47;;;15.30;98.40;;;;;;6277295;22;20716;-96
2022/12/31 04:25:43;;;;;;;10.27;3.50;;;15.30;98.30;;;;;;6277494;22;20170;-96
2022/12/31 04:28:23;;;;;;;;;;;;;;;;;;;;;
2022/12/31 04:31:18;;;;;;;8.03;2.47;;;15.30;98.60;;;;;;6276287;22;20801;-96
2022/12/31 04:33:50;;;;;;;3.33;1.17;;;15.30;99.00;;;;;;6276649;22;20174;-96
2022/12/31 04:36:28;;;;;;;6.63;2.10;;;15.40;99.10;;;;;;6276865;22;20174;-96
2022/12/31 04:39:01;;;;;;;7.47;2.40;;;15.40;99.50;;;;;;6277826;22;20230;-96
2022/12/31 04:41:32;;;;;;;6.20;2.07;;;15.40;99.50;;;;;;6276134;22;20197;-96
2022/12/31 04:44:02;;;;;;;6.03;1.77;;;15.50;99.70;;;;;;6275898;22;20167;-96
2022/12/31 04:46:37;;;;;;;4.70;1.60;;;15.50;99.90;;;;;;6275986;22;20169;-96
2022/12/31 04:49:11;;;;;;;7.77;2.30;;;15.60;99.90;;;;;;6276204;22;20170;-96
2022/12/31 04:51:50;;;;;;;9.90;2.77;;;15.60;99.90;;;;;;6275491;22;20176;-96
2022/12/31 04:54:24;;;;;;;9.83;2.50;;;15.70;99.90;;;;;;6275190;22;20169;-96
2022/12/31 04:56:53;;;;;;;5.40;1.30;;;15.80;99.90;;;;;;6277633;22;20228;-96
2022/12/31 04:59:20;;;;;;;4.63;1.53;;;15.80;99.90;;;;;;6297238;22;20245;-96
2022/12/31 05:01:49;;;;;;;6.03;1.97;;;15.90;99.90;;;;;;6282314;22;20174;-96
2022/12/31 05:04:23;;;;;;;6.33;2.03;;;15.90;99.90;;;;;;6276284;22;20441;-96
2022/12/31 05:06:52;;;;;;;2.60;1.00;;;15.90;99.90;;;;;;6277180;22;20582;-96
2022/12/31 05:09:22;;;;;;;4.93;1.70;;;16.00;99.90;;;;;;6278043;22;20262;-96
2022/12/31 05:11:50;;;;;;;9.53;2.83;;;16.00;99.90;;;;;;6278097;22;20176;-96
2022/12/31 05:14:22;;;;;;;10.57;3.07;;;16.10;99.90;;;;;;6277254;22;20161;-96
2022/12/31 05:16:57;;;;;;;6.33;1.90;;;16.20;99.90;;;;;;6277038;22;20185;-96
2022/12/31 05:19:42;;;;;;;9.30;2.60;;;16.10;99.90;;;;;;6274876;22;20255;-96
2022/12/31 05:22:29;;;;;;;6.53;1.97;;;16.20;99.90;;;;;;6277407;22;20176;-96
2022/12/31 05:25:03;;;;;;;10.10;3.17;;;16.20;99.80;;;;;;6273489;22;20176;-96
2022/12/31 05:27:31;;;;;;;7.57;2.40;;;16.30;99.90;;;;;;6273579;22;20177;-96
2022/12/31 05:30:00;;;;;;;6.37;2.13;;;16.30;99.70;;;;;;6275361;22;20231;-96
2022/12/31 05:32:28;;;;;;;3.97;1.30;;;16.30;99.80;;;;;;6276600;22;20549;-96
2022/12/31 05:34:58;;;;;;;2.97;0.93;;;16.30;99.80;;;;;;6277093;22;20183;-96
2022/12/31 05:37:27;;;;;;;8.50;2.30;;;16.30;99.80;;;;;;6276060;22;20171;-96
2022/12/31 05:40:03;;;;;;;4.10;1.47;;;16.40;99.90;;;;;;6277004;22;20187;-96
2022/12/31 05:42:37;;;;;;;4.70;1.40;;;16.40;99.90;;;;;;6276436;22;20195;-96
2022/12/31 05:45:19;;;;;;;6.73;2.10;;;16.50;99.90;;;;;;6277028;22;20275;-96
2022/12/31 05:47:53;;;;;;;7.23;2.23;;;16.50;99.90;;;;;;6279354;22;20604;-95
2022/12/31 05:50:20;;;;;;;5.60;1.73;;;16.50;99.90;;;;;;6277934;22;20227;-96
2022/12/31 05:52:53;;;;;;;6.87;2.13;;;16.50;99.90;;;;;;6278091;22;20197;-96
2022/12/31 05:55:25;;;;;;;9.97;2.70;;;16.50;99.90;;;;;;6294650;22;20242;-96
2022/12/31 05:57:58;;;;;;;5.40;1.37;;;16.60;99.90;;;;;;6263493;22;20171;-96
2022/12/31 06:00:29;;;;;;;10.27;2.50;;;16.60;99.90;;;;;;6279586;22;20791;-96
2022/12/31 06:03:02;;;;;;;6.43;1.93;;;16.70;99.90;;;;;;6280510;22;20176;-96
2022/12/31 06:05:30;;;;;;;7.13;1.37;;;16.70;99.90;;;;;;6279305;22;20615;-96
2022/12/31 06:08:07;;;;;;;5.00;1.33;;;16.70;99.90;;;;;;6295010;22;20205;-96
2022/12/31 06:10:45;;;;;;;6.57;1.97;;;16.70;99.90;;;;;;6302936;22;20167;-96
2022/12/31 06:13:27;;;;;;;4.77;1.43;;;16.80;99.90;;;;;;6299966;22;20179;-96
2022/12/31 06:16:11;;;;;;;5.53;1.70;;;16.80;99.90;;;;;;6301465;22;20161;-96
2022/12/31 06:18:55;;;;;;;7.90;2.20;;;16.80;99.90;;;;;;6295914;22;20168;-95
2022/12/31 06:21:24;;;;;;;5.53;1.60;;;16.90;99.90;;;;;;6301352;22;20194;-95
2022/12/31 06:23:57;;;;;;;5.80;1.43;;;16.90;99.90;;;;;;6276774;22;20252;-96
2022/12/31 06:26:41;;;;;;;4.77;1.67;;;16.90;99.90;;;;;;6279574;22;20188;-96
2022/12/31 06:29:15;;;;;;;5.90;2.10;;;16.90;99.90;;;;;;6279357;22;20169;-96
2022/12/31 06:31:55;;;;;;;4.57;0.93;;;17.00;99.90;;;;;;6280601;22;20175;-96
2022/12/31 06:34:38;;;;;;;8.37;1.70;;;17.00;99.90;;;;;;6280775;22;20189;-96
2022/12/31 06:37:16;;;;;;;4.80;1.60;;;17.10;99.90;;;;;;6281230;22;20175;-96
2022/12/31 06:40:17;;;;;;;4.30;1.60;;;17.10;99.90;;;;;;6280183;22;20212;-96
2022/12/31 06:42:57;;;;;;;2.80;1.10;;;17.10;99.90;;;;;;6279892;22;20202;-96
2022/12/31 06:51:57;;;;;;;10.67;2.80;;;17.20;99.90;;;;;;6294199;22;20175;-96
2022/12/31 06:54:30;;;;;;;3.10;0.90;;;17.30;99.90;;;;;;6293918;22;20235;-96
2022/12/31 06:57:12;;;;;;;4.93;1.43;;;17.30;99.90;;;;;;6282347;22;20172;-96
2022/12/31 06:59:52;;;;;;;5.30;1.43;;;17.30;99.90;;;;;;6281671;22;20182;-96
2022/12/31 07:02:55;;;;;;;4.80;1.77;;;17.20;99.90;;;;;;6282523;22;20612;-96
2022/12/31 07:05:45;;;;;;;2.47;0.90;;;17.20;99.90;;;;;;6281045;22;20197;-96
2022/12/31 07:08:28;;;;;;;8.67;2.43;;;17.20;99.90;;;;;;6282671;22;20168;-96
2022/12/31 07:11:07;;;;;;;5.87;1.67;;;17.30;99.90;;;;;;6279595;22;20176;-95
2022/12/31 07:13:55;;;;;;;2.43;1.00;;;17.30;99.90;;;;;;6281924;22;20195;-96
2022/12/31 07:16:35;;;;;;;4.73;1.57;;;17.30;99.90;;;;;;6278873;22;20200;-96
2022/12/31 07:19:26;;;;;;;8.27;2.63;;;17.30;99.90;;;;;;6280600;22;20203;-96
2022/12/31 07:22:00;;;;;;;3.87;1.20;;;17.40;99.90;;;;;;6281175;22;20192;-96
2022/12/31 07:24:36;;;;;;;3.73;1.07;;;17.30;99.90;;;;;;6279959;22;20606;-96
2022/12/31 07:27:29;;;;;;;5.57;1.83;;;17.40;99.90;;;;;;6281271;22;20181;-96
2022/12/31 07:30:04;;;;;;;6.13;1.93;;;17.40;99.90;;;;;;6279111;22;20169;-96
2022/12/31 07:32:49;;;;;;;3.10;1.13;;;17.40;99.90;;;;;;6279767;22;20695;-96
2022/12/31 07:35:39;;;;;;;3.97;1.30;;;17.40;99.90;;;;;;6260585;22;20216;-95
2022/12/31 07:38:51;;;;;;;4.50;1.43;;;17.40;99.90;;;;;;6279146;22;20247;-96
2022/12/31 07:41:34;;;;;;;5.13;1.67;;;17.50;99.90;;;;;;6274437;22;20727;-96
2022/12/31 07:44:16;;;;;;;6.40;2.10;;;17.50;99.80;;;;;;6280223;22;20174;-96
2022/12/31 07:47:26;;;;;;;3.93;1.17;;;17.60;99.60;;;;;;6281105;22;20199;-96
2022/12/31 07:50:06;;;;;;;6.63;2.27;;;17.60;99.50;;;;;;6295468;22;20181;-96
2022/12/31 07:52:43;;;;;;;4.50;1.33;;;17.60;99.40;;;;;;6288504;22;20181;-95
2022/12/31 07:58:38;;;;;;;7.57;2.23;;;17.60;99.20;;;;;;6275575;22;20169;-95
2022/12/31 08:01:13;;;;;;;4.67;1.77;;;17.70;99.00;;;;;;6277927;22;20645;-96
2022/12/31 08:03:57;;;;;;;2.70;1.10;;;17.70;98.90;;;;;;6278911;22;20169;-96
2022/12/31 08:09:32;;;;;;;6.33;1.90;;;17.70;98.70;;;;;;6277774;22;20177;-96
2022/12/31 08:12:03;;;;;;;2.43;0.90;;;17.70;98.60;;;;;;6276539;22;20168;-96
2022/12/31 08:14:44;;;;;;;7.27;2.33;;;17.70;98.60;;;;;;6276324;22;20169;-96
2022/12/31 08:17:23;;;;;;;6.80;1.80;;;17.70;98.40;;;;;;6277031;22;20189;-96
2022/12/31 08:19:57;;;;;;;6.57;1.80;;;17.80;98.20;;;;;;6279498;22;20599;-96
2022/12/31 08:25:41;;;;;;;6.77;1.50;;;17.80;98.50;;;;;;6279884;22;20538;-96
2022/12/31 08:28:22;;;;;;;7.50;2.13;;;17.80;98.50;;;;;;6280566;22;20172;-95
2022/12/31 08:31:11;;;;;;;6.23;1.93;;;17.80;98.50;;;;;;6279542;22;20175;-96
2022/12/31 08:33:51;;;;;;;7.57;2.50;;;17.80;98.50;;;;;;6281135;22;20232;-96
2022/12/31 08:36:35;;;;;;;8.50;2.33;;;17.80;98.50;;;;;;6281023;22;20176;-96
2022/12/31 08:39:17;;;;;;;5.27;1.90;;;17.80;98.40;;;;;;6280713;22;20180;-96
2022/12/31 08:41:54;;;;;;;7.30;1.87;;;17.80;98.50;;;;;;6281624;22;20206;-96
2022/12/31 08:44:49;;;;;;;8.80;2.80;;;17.80;98.50;;;;;;6258145;22;20231;-96
2022/12/31 08:47:41;;;;;;;5.03;1.67;;;17.90;98.50;;;;;;6285358;22;20174;-96
2022/12/31 08:50:18;;;;;;;6.27;1.97;;;17.90;98.50;;;;;;6286219;22;20174;-95
2022/12/31 08:52:50;;;;;;;7.10;2.13;;;17.90;98.50;;;;;;6289818;22;20181;-95
2022/12/31 08:55:28;;;;;;;7.87;1.77;;;17.80;98.60;;;;;;6287120;22;20248;-96
2022/12/31 08:58:15;;;;;;;4.87;1.67;;;17.90;98.70;;;;;;6283998;22;20170;-96
2022/12/31 09:00:48;;;;;;;6.67;1.60;;;17.80;98.80;;;;;;6284136;22;20182;-95
2022/12/31 09:03:46;;;;;;;5.30;1.73;;;17.80;98.70;;;;;;6285127;22;20165;-96
2022/12/31 09:07:15;;;;;;;4.03;1.43;;;17.80;98.70;;;;;;6251330;22;20265;-96
2022/12/31 09:10:11;;;;;;;4.23;1.27;;;17.80;98.70;;;;;;6279821;22;20567;-96
2022/12/31 09:15:34;;;;;;;9.17;1.97;;;17.80;98.70;;;;;;6278900;22;20618;-96
2022/12/31 09:18:12;;;;;;;5.03;1.73;;;17.80;98.70;;;;;;6279139;22;20194;-96
2022/12/31 09:21:04;;;;;;;6.17;1.93;;;17.80;98.80;;;;;;6280001;22;20183;-96
2022/12/31 09:23:32;;;;;;;8.20;2.37;;;17.80;99.20;;;;;;6280167;22;20172;-96
2022/12/31 09:26:15;;;;;;;5.80;1.87;;;17.80;98.90;;;;;;6280479;22;20250;-96
2022/12/31 09:28:57;;;;;;;8.50;2.97;;;17.80;99.00;;;;;;6278440;22;20491;-95
2022/12/31 09:31:40;;;;;;;3.47;1.53;;;17.80;99.00;;;;;;6281574;22;20188;-96
2022/12/31 09:34:51;;;;;;;5.57;1.63;;;17.80;99.10;;;;;;6278481;22;20223;-95
2022/12/31 09:38:10;;;;;;;8.47;2.00;;;17.80;99.10;;;;;;6277901;22;20262;-96
2022/12/31 09:41:16;;;;;;;7.90;2.03;;;17.80;99.20;;;;;;6281577;22;21000;-96
2022/12/31 09:44:23;;;;;;;14.07;3.83;;;17.80;99.30;;;;;;6291139;22;20255;-96
2022/12/31 09:47:31;;;;;;;8.00;2.60;;;17.70;99.30;;;;;;6278002;22;20238;-95
2022/12/31 09:50:35;;;;;;;7.77;2.77;;;17.70;99.30;;;;;;6277694;22;20255;-95
2022/12/31 09:53:40;;;;;;;6.43;1.93;;;17.80;99.40;;;;;;6280112;22;20172;-96
2022/12/31 09:56:27;;;;;;;3.37;1.63;;;17.70;99.40;;;;;;6284618;22;20171;-96
2022/12/31 09:59:15;;;;;;;7.27;1.73;;;17.70;99.40;;;;;;6287484;22;20200;-96
2022/12/31 10:01:51;;;;;;;9.40;2.30;;;17.80;99.40;;;;;;6283500;22;20512;-96
2022/12/31 10:04:57;;;;;;;7.93;1.90;;;17.80;99.40;;;;;;6280485;22;20173;-96
2022/12/31 10:07:56;;;;;;;9.70;2.10;;;17.80;99.50;;;;;;6279499;22;20168;-96
2022/12/31 10:10:32;;;;;;;9.33;2.87;;;17.80;99.40;;;;;;6286789;22;20177;-96
2022/12/31 10:13:27;;;;;;;6.00;2.17;;;17.80;99.30;;;;;;6291874;22;20173;-96
2022/12/31 10:16:24;;;;;;;9.00;2.67;;;17.80;99.30;;;;;;6285025;22;20212;-96
2022/12/31 10:19:30;;;;;;;7.33;2.47;;;17.80;99.30;;;;;;6280596;22;20177;-96
2022/12/31 10:22:31;;;;;;;7.43;2.40;;;17.80;99.20;;;;;;6284277;22;20227;-96
2022/12/31 10:25:19;;;;;;;6.77;2.43;;;17.90;99.20;;;;;;6285836;22;20179;-96
2022/12/31 10:27:57;;;;;;;9.13;2.57;;;17.90;99.10;;;;;;6279059;22;20173;-96
2022/12/31 10:30:56;;;;;;;5.80;1.70;;;17.90;99.10;;;;;;6279107;22;20181;-95
2022/12/31 10:33:44;;;;;;;10.00;3.03;;;17.90;99.00;;;;;;6278879;22;20645;-96
2022/12/31 10:36:20;;;;;;;6.33;2.23;;;17.90;98.90;;;;;;6283704;22;20269;-95
2022/12/31 10:39:23;;;;;;;5.30;1.80;;;18.00;99.00;;;;;;6280856;22;20180;-96
2022/12/31 10:42:31;;;;;;;6.17;1.77;;;18.00;98.80;;;;;;6284287;22;20201;-96
2022/12/31 10:45:30;;;;;;;5.73;2.00;;;18.00;98.80;;;;;;6211309;22;20169;-96
2022/12/31 10:48:33;;;;;;;6.70;1.97;;;18.00;98.70;;;;;;6279329;22;20532;-95
2022/12/31 10:51:33;;;;;;;8.33;2.63;;;18.00;98.70;;;;;;6287068;22;20168;-95
2022/12/31 10:54:36;;;;;;;14.53;4.17;;;18.10;98.60;;;;;;6287135;22;20153;-96
2022/12/31 10:57:41;;;;;;;8.23;2.77;;;18.10;98.60;;;;;;6285076;22;20600;-96
2022/12/31 11:00:18;;;;;;;7.33;2.43;;;18.10;98.40;;;;;;6291899;22;20260;-96
2022/12/31 11:03:30;;;;;;;4.57;1.70;;;18.10;98.30;;;;;;6283941;22;20202;-96
2022/12/31 11:06:42;;;;;;;5.07;2.03;;;18.10;98.10;;;;;;6242671;22;20174;-96
2022/12/31 11:13:12;;;;;;;7.70;2.53;;;18.10;98.10;;;;;;6279865;22;20576;-95
2022/12/31 11:16:08;;;;;;;6.23;1.97;;;18.10;98.10;;;;;;6276301;22;20267;-96
2022/12/31 11:22:32;;;;;;;5.50;1.83;;;18.10;98.00;;;;;;6277046;22;20197;-96
2022/12/31 11:25:50;;;;;;;9.07;3.30;;;18.10;98.40;;;;;;6282133;22;20177;-96
2022/12/31 11:29:23;;;;;;;;;;;;;;;;;;;;;
2022/12/31 11:33:23;;;;;;;;;;;;;;;;;;;;;
2022/12/31 11:36:30;;;;;;;11.10;3.43;;;18.00;98.00;;;;;;6282726;22;20177;-96
2022/12/31 11:49:38;;;;;;;8.40;2.53;;;18.00;98.10;;;;;;6121908;23;20244;-96
2022/12/31 11:52:50;;;;;;;4.87;1.93;;;18.00;98.20;;;;;;6281018;22;20212;-96
2022/12/31 11:55:41;;;;;;;5.77;1.87;;;18.00;98.20;;;;;;6283168;22;20165;-96
2022/12/31 11:58:21;;;;;;;4.90;1.60;;;18.00;98.20;;;;;;6282765;22;20223;-95
2022/12/31 12:01:02;;;;;;;8.33;2.10;;;18.00;98.20;;;;;;6282368;22;20268;-96
2022/12/31 12:03:42;;;;;;;4.30;1.57;;;18.00;98.10;;;;;;6292600;22;20199;-96
2022/12/31 12:06:23;;;;;;;6.60;2.10;;;18.00;98.20;;;;;;6286724;22;20198;-96
2022/12/31 12:08:58;;;;;;;5.63;2.07;;;18.00;98.20;;;;;;6284220;22;20238;-96
2022/12/31 12:11:37;;;;;;;12.80;4.00;;;18.00;98.20;;;;;;6282084;22;20172;-96
2022/12/31 12:14:37;;;;;;;9.47;2.97;;;18.00;98.20;;;;;;6284311;22;20169;-96
2022/12/31 12:17:24;;;;;;;6.93;1.87;;;18.00;98.20;;;;;;6285306;22;20192;-96
2022/12/31 12:20:33;;;;;;;6.80;1.83;;;18.00;98.00;;;;;;6285229;22;20173;-96
2022/12/31 12:26:43;;;;;;;4.77;1.53;;;17.90;97.70;;;;;;6283740;22;20175;-96
2022/12/31 12:29:18;;;;;;;6.17;2.07;;;17.90;97.80;;;;;;6283108;22;20214;-96
2022/12/31 12:32:11;;;;;;;4.87;1.70;;;17.90;97.60;;;;;;6284623;22;20208;-96
2022/12/31 12:34:45;;;;;;;5.53;2.10;;;17.90;97.70;;;;;;6283613;22;20523;-96
2022/12/31 12:37:38;;;;;;;10.07;2.83;;;17.90;97.60;;;;;;6279847;22;20182;-96
2022/12/31 12:40:25;;;;;;;6.60;2.27;;;17.90;97.60;;;;;;6285255;22;20243;-96
2022/12/31 12:46:03;;;;;;;6.70;2.40;;;17.90;97.00;;;;;;6282512;22;20189;-96
2022/12/31 12:48:55;;;;;;;9.03;2.90;;;17.90;96.80;;;;;;6282059;22;20173;-94
2022/12/31 12:51:43;;;;;;;4.77;1.50;;;17.90;96.90;;;;;;6284748;22;20191;-94
2022/12/31 12:54:58;;;;;;;7.67;2.43;;;17.90;96.80;;;;;;6288579;22;20187;-96
2022/12/31 12:58:08;;;;;;;8.10;2.97;;;17.90;96.50;;;;;;6284258;22;20177;-96
2022/12/31 13:01:11;;;;;;;11.67;3.43;;;17.90;96.20;;;;;;6209276;22;20183;-96
2022/12/31 13:04:11;;;;;;;4.60;1.80;;;17.90;95.90;;;;;;6256983;23;20198;-96
2022/12/31 13:10:44;;;;;;;7.07;2.17;;;17.90;95.30;;;;;;6254925;23;20256;-95
2022/12/31 13:14:02;;;;;;;8.37;2.47;;;17.90;95.40;;;;;;6261602;23;20177;-96
2022/12/31 13:23:30;;;;;;;10.90;2.80;;;17.90;95.40;;;;;;6259497;23;20205;-96
2022/12/31 13:26:31;;;;;;;6.90;2.27;;;17.90;95.50;;;;;;6202068;23;20180;-96
2022/12/31 13:29:15;;;;;;;;;;;;;;;;;;;;;
2022/12/31 13:32:09;;;;;;;9.67;2.60;;;17.90;95.70;;;;;;6264599;23;20180;-96
2022/12/31 13:38:20;;;;;;;11.53;3.37;;;17.90;95.50;;;;;;6257522;23;20181;-96
2022/12/31 13:48:00;;;;;;;10.90;3.23;;;17.90;95.40;;;;;;6262105;23;20248;-96
2022/12/31 13:50:50;;;;;;;8.23;2.70;;;17.90;95.50;;;;;;6260245;23;20181;-96
2022/12/31 13:57:13;;;;;;;12.57;2.80;;;18.00;95.20;;;;;;6261685;23;20179;-96
2022/12/31 13:59:45;;;;;;;7.67;2.70;;;18.00;95.50;;;;;;6138963;23;20236;-96
2022/12/31 14:05:52;;;;;;;10.83;2.67;;;18.00;94.60;;;;;;6256950;23;20500;-96
2022/12/31 14:08:22;;;;;;;7.67;2.83;;;18.00;94.20;;;;;;6258177;23;20553;-95
2022/12/31 14:11:14;;;;;;;9.97;3.07;;;18.00;94.60;;;;;;6258295;23;20171;-96
2022/12/31 14:14:03;;;;;;;11.17;2.83;;;18.00;92.80;;;;;;6260726;23;20190;-96
2022/12/31 14:16:38;;;;;;;11.73;3.33;;;18.00;93.40;;;;;;6256029;23;20194;-96
2022/12/31 14:19:44;;;;;;;17.13;4.63;;;18.00;93.50;;;;;;6258123;23;20181;-96
2022/12/31 14:22:21;;;;;;;7.20;2.53;;;18.00;93.70;;;;;;6260598;23;20197;-96
2022/12/31 14:25:16;;;;;;;14.07;3.37;;;18.10;93.70;;;;;;6259580;23;20191;-96
2022/12/31 14:28:25;;;;;;;11.73;3.97;;;18.10;94.20;;;;;;6230214;22;20218;-96
2022/12/31 14:41:08;;;;;;;9.43;2.40;;;18.10;93.60;;;;;;6178343;23;20623;-96
2022/12/31 14:43:58;;;;;;;15.30;3.83;;;18.00;93.20;;;;;;6231806;23;20253;-96
2022/12/31 14:50:51;;;;;;;10.83;3.30;;;18.10;93.10;;;;;;6205546;23;20236;-96
2022/12/31 14:56:35;;;;;;;9.43;3.03;;;18.00;92.30;;;;;;6221551;23;20231;-96
2022/12/31 15:06:18;;;;;;;10.67;2.67;;;18.00;92.80;;;;;;6130659;23;20169;-96
2022/12/31 15:12:46;;;;;;;10.33;3.37;;;18.00;91.90;;;;;;6138844;23;20492;-96
2022/12/31 15:23:09;;;;;;;10.60;3.37;;;18.00;91.10;;;;;;6130881;23;20196;-96
2022/12/31 15:26:07;;;;;;;7.53;2.97;;;18.00;91.60;;;;;;5936523;24;20191;-96
2022/12/31 15:29:25;;;;;;;7.30;2.83;;;17.90;91.60;;;;;;5987364;23;20188;-96
2022/12/31 15:32:44;;;;;;;12.37;3.97;;;17.90;91.20;;;;;;6036482;23;20199;-96
2022/12/31 15:47:22;;;;;;;9.90;3.17;;;17.90;90.60;;;;;;6246534;23;20214;-96
2022/12/31 17:47:16;;;;;;;6.90;2.70;;;17.60;75.80;;;;;;6049220;23;20194;-96
2022/12/31 17:50:29;;;;;;;8.63;3.20;;;17.60;74.40;;;;;;6054357;23;20185;-96
2022/12/31 18:13:19;;;;;;;16.63;4.47;;;17.50;71.70;;;;;;6135625;23;20203;-96
2022/12/31 18:15:55;;;;;;;10.90;3.47;;;17.50;72.40;;;;;;6225410;23;20178;-92
2022/12/31 18:30:55;;;;;;;12.20;3.77;;;17.50;72.80;;;;;;6079486;23;20182;-96
2022/12/31 18:33:36;;;;;;;9.97;3.70;;;17.40;72.40;;;;;;6048436;23;20183;-95
2022/12/31 18:39:04;;;;;;;5.07;2.33;;;17.50;72.40;;;;;;6192031;23;20191;-94
2022/12/31 18:41:50;;;;;;;25.03;7.23;;;17.50;71.60;;;;;;6193418;23;20400;-96
2022/12/31 18:44:48;;;;;;;8.27;3.40;;;17.50;72.30;;;;;;6255715;23;20191;-94
2022/12/31 18:50:46;;;;;;;11.23;2.83;;;17.50;71.50;;;;;;6259679;23;20172;-96
2022/12/31 18:53:38;;;;;;;10.07;2.67;;;17.50;71.50;;;;;;6248508;23;20183;-96
2022/12/31 18:59:21;;;;;;;5.67;1.90;;;17.50;71.10;;;;;;6234314;23;20183;-96
2022/12/31 19:02:27;;;;;;;11.87;3.17;;;17.50;71.00;;;;;;6261694;23;20513;-94
2022/12/31 19:05:02;;;;;;;9.47;2.87;;;17.50;71.30;;;;;;6260428;23;20201;-95
2022/12/31 19:07:34;;;;;;;7.67;2.83;;;17.50;70.60;;;;;;6233806;23;20195;-95
2022/12/31 19:13:50;;;;;;;;;;;;;;;;;;;;;
2022/12/31 19:36:50;;;;;;;9.80;2.97;;;17.50;69.90;;;;;;6243481;22;20208;-96
2022/12/31 19:42:29;;;;;;;24.00;7.13;;;17.50;69.10;;;;;;6154603;22;20216;-96
2022/12/31 19:51:11;;;;;;;12.20;3.53;;;17.50;69.30;;;;;;6137177;23;20187;-93
2022/12/31 19:57:27;;;;;;;13.03;3.87;;;17.50;69.20;;;;;;6055547;23;20246;-96
2022/12/31 20:13:55;;;;;;;8.77;3.43;;;17.50;69.60;;;;;;6154648;23;20245;-96
2022/12/31 21:02:33;;;;;;;32.57;9.33;;;17.50;68.40;;;;;;6203408;22;20209;-96
